createdAt,value
2024-04-13T00:18:08.976Z,57
2024-04-13T00:47:11.191Z,62
2024-04-13T01:16:27.314Z,62
2024-04-13T01:45:42.464Z,60
2024-04-13T02:14:55.553Z,60
2024-04-13T02:44:09.762Z,62
2024-04-13T03:13:32.049Z,62
2024-04-13T03:42:06.979Z,63
2024-04-13T04:11:07.894Z,63
2024-04-13T04:40:24.397Z,64
2024-04-13T05:09:39.183Z,77
2024-04-13T05:38:48.112Z,73
2024-04-13T06:08:01.079Z,79
2024-04-13T06:37:05.136Z,79
2024-04-13T07:06:27.287Z,78
2024-04-13T07:35:48.067Z,75
2024-04-13T08:05:07.555Z,73
2024-04-13T08:34:21.076Z,70
2024-04-13T09:03:34.300Z,67
2024-04-13T09:32:45.433Z,63
2024-04-13T10:01:57.963Z,64
2024-04-13T10:31:14.984Z,57
2024-04-13T11:00:36.952Z,56
2024-04-13T11:29:55.417Z,55
2024-04-13T11:59:23.451Z,41
2024-04-13T12:28:47.236Z,44
2024-04-13T12:58:04.292Z,48
2024-04-13T13:27:25.358Z,45
2024-04-13T13:56:47.246Z,45
2024-04-13T14:26:10.861Z,45
2024-04-13T14:55:27.130Z,46
2024-04-13T15:24:52.970Z,41
2024-04-13T15:54:13.836Z,41
2024-04-13T16:22:54.204Z,43
2024-04-13T16:52:14.458Z,44
2024-04-13T17:21:32.621Z,45
2024-04-13T17:50:43.736Z,46
2024-04-13T18:20:06.884Z,48
2024-04-13T18:49:26.564Z,49
2024-04-13T19:18:36.423Z,52
2024-04-13T19:47:30.953Z,56
2024-04-13T20:16:39.366Z,58
2024-04-13T20:45:46.743Z,61
2024-04-13T21:14:47.699Z,56
2024-04-13T21:43:50.726Z,56
2024-04-13T22:13:03.919Z,57
2024-04-13T22:42:12.186Z,57
2024-04-13T23:11:23.111Z,65
2024-04-13T23:40:34.662Z,66
